Plymouth, CT

5:05 AM EST on February 10, 2016 (GMT -0500)
Windy Heights, Terryville, CT | | Change Station
CLOSE
Current Station
Personal Weather Station
Location: Terryville, CT
Elevation: 814 ft
Nearby Weather Stations

Elev 814 ft 41.69 °N, 73.01 °W | Updated 167 days ago

Snow
Snow
24 °F
Feels Like 24 °F
N
1
Wind Variable Wind from South
Gusts mph

Today
High -- | Low -- °F
--% Chance of Precip.
Yesterday
High -- | Low -- °F
Precip. -- in
Pressure 29.57 in
Visibility 2.5 miles
Clouds Few 500 ft
Overcast 2600 ft
Dew Point 22 °F
Humidity 91%
Rainfall in
Snow Depth Not available.
6:54 AM 5:18 PM
Waxing Crescent, 4% visible
METAR KOXC 100955Z 21003KT 2 1/2SM FEW005 OVC026 M02/M08 A2957 RMK AO1
Pressure 29.57 in
Visibility 2.5 miles
Clouds Few 500 ft
Overcast 2600 ft
Dew Point 22 °F
Humidity 91%
Rainfall in
Snow Depth Not available.
6:54 AM 5:18 PM
Waxing Crescent, 4% visible
METAR KOXC 100955Z 21003KT 2 1/2SM FEW005 OVC026 M02/M08 A2957 RMK AO1

10-Day Weather Forecast

Almanac

Astronomy

Feb. 10, 2016 Rise Set
Actual Time
Civil Twilight
Nautical Twilight
Astronomical Twilight
Moon
Length of Visible Light
Length of Day
Tomorrow will be .
, % of the Moon is Illuminated

Today's Extremes

State Highs State Lows

Community

WunderPhotos

Upload Photos

1,891,828 photos uploaded!

WunderBlog® & News

Nearby

Air Quality

  Air Quality AQ Index Pollutant
Not available.

Snow Depth

Station Depth Elevation

Earthquake Activity

City Distance Mag. Time & Date
Minimum magnitude displayed is 2.5.

Coastal Water Temperatures

Place Temperature

Stations

Nearby Weather Stations

Station Location Temp. Windchill Dew Point Humidity Wind Precip. Elev Updated Type
                   

Watches & Warnings

There are currently no watches in effect.